Time;durP1;ratioP1;P1;durP2;ratioP2;P2;SDS_P1;SDS_P2;PMS_P1;PMS_P2;Temp;Humidity;BMP_temperature;BMP_pressure;BME280_temperature;BME280_humidity;BME280_pressure;Samples;Min_cycle;Max_cycle;Signal;HPM_P1;HPM_P2
2021/12/06 00:01:19;;;;;;;2.70;2.20;;;4.50;99.90;;;;;;5046471;28;20188;-90
2021/12/06 00:03:50;;;;;;;2.40;2.20;;;4.50;99.90;;;;;;5062009;28;20180;-91
2021/12/06 00:06:19;;;;;;;3.57;2.53;;;4.50;99.90;;;;;;5046747;28;20195;-91
2021/12/06 00:08:45;;;;;;;3.07;2.50;;;4.50;99.90;;;;;;5046063;28;20203;-91
2021/12/06 00:11:13;;;;;;;2.50;2.30;;;4.40;99.90;;;;;;5042826;28;20252;-92
2021/12/06 00:13:43;;;;;;;2.47;2.27;;;4.40;99.90;;;;;;5038762;28;20593;-92
2021/12/06 00:16:16;;;;;;;2.07;1.97;;;4.30;99.90;;;;;;5039604;28;20280;-91
2021/12/06 00:18:45;;;;;;;2.47;2.27;;;4.40;99.90;;;;;;5046927;28;20253;-92
2021/12/06 00:21:11;;;;;;;2.50;2.20;;;4.40;99.90;;;;;;5065500;28;20180;-92
2021/12/06 00:23:38;;;;;;;2.47;2.27;;;4.50;99.90;;;;;;5045382;28;20722;-92
2021/12/06 00:26:06;;;;;;;2.63;2.43;;;4.50;99.90;;;;;;5055877;28;20224;-92
2021/12/06 00:28:32;;;;;;;2.70;2.50;;;4.40;99.90;;;;;;5062331;28;20192;-91
2021/12/06 00:30:57;;;;;;;3.13;2.83;;;4.40;99.90;;;;;;5064036;28;20188;-92
2021/12/06 00:33:25;;;;;;;2.70;2.50;;;4.40;99.90;;;;;;5044378;28;20200;-92
2021/12/06 00:35:51;;;;;;;2.63;2.37;;;4.40;99.70;;;;;;5058739;28;20675;-92
2021/12/06 00:38:18;;;;;;;3.07;2.00;;;4.10;99.90;;;;;;5049149;28;20205;-91
2021/12/06 00:40:47;;;;;;;2.60;2.40;;;3.80;99.90;;;;;;5045312;28;20272;-92
2021/12/06 00:43:14;;;;;;;2.53;2.33;;;3.80;99.90;;;;;;5056860;28;20196;-92
2021/12/06 00:45:41;;;;;;;2.13;2.00;;;3.70;99.90;;;;;;5022605;28;20243;-92
2021/12/06 00:48:07;;;;;;;2.30;2.10;;;3.70;99.90;;;;;;5068828;28;20192;-92
2021/12/06 00:50:35;;;;;;;3.17;2.50;;;3.80;99.90;;;;;;5069083;28;20180;-92
2021/12/06 00:53:02;;;;;;;3.10;2.50;;;3.90;99.90;;;;;;5056453;28;20201;-92
2021/12/06 00:55:28;;;;;;;2.50;2.30;;;4.00;99.90;;;;;;5031912;28;20222;-92
2021/12/06 00:57:55;;;;;;;2.90;2.60;;;4.00;99.90;;;;;;5069243;28;20227;-92
2021/12/06 01:00:26;;;;;;;2.43;2.20;;;4.00;99.90;;;;;;5043717;28;20254;-92
2021/12/06 01:02:53;;;;;;;2.93;2.60;;;3.90;99.90;;;;;;5039505;28;20177;-92
2021/12/06 01:05:22;;;;;;;2.60;2.40;;;4.00;99.90;;;;;;5047802;28;20465;-92
2021/12/06 01:07:50;;;;;;;2.60;2.40;;;4.10;99.90;;;;;;5044761;28;20258;-92
2021/12/06 01:10:16;;;;;;;2.60;2.40;;;4.10;99.90;;;;;;5027616;28;20314;-92
2021/12/06 01:12:42;;;;;;;4.17;2.53;;;4.10;99.90;;;;;;5047271;28;20197;-92
2021/12/06 01:15:09;;;;;;;2.17;1.90;;;4.00;99.90;;;;;;5031565;28;20208;-91
2021/12/06 01:17:35;;;;;;;2.43;2.10;;;4.00;99.70;;;;;;5065423;28;20231;-92
2021/12/06 01:20:07;;;;;;;3.53;2.40;;;3.90;99.20;;;;;;5068974;28;20208;-92
2021/12/06 01:22:47;;;;;;;2.40;2.20;;;3.80;99.60;;;;;;5047221;28;20192;-92
2021/12/06 01:25:37;;;;;;;2.20;2.00;;;3.80;99.70;;;;;;5067293;28;20596;-92
2021/12/06 01:30:58;;;;;;;3.10;2.80;;;3.90;99.90;;;;;;5055296;28;20190;-91
2021/12/06 01:39:14;;;;;;;2.90;2.70;;;3.90;99.30;;;;;;5057280;28;20271;-91
2021/12/06 01:41:48;;;;;;;2.80;2.60;;;3.90;99.00;;;;;;5058682;28;20248;-92
2021/12/06 01:44:17;;;;;;;2.90;2.37;;;3.80;98.30;;;;;;5036316;28;20223;-92
2021/12/06 01:46:53;;;;;;;2.97;2.30;;;3.80;98.80;;;;;;5049900;28;20192;-92
2021/12/06 01:49:21;;;;;;;2.97;2.63;;;3.60;98.80;;;;;;5034518;28;20251;-91
2021/12/06 01:51:51;;;;;;;2.43;2.20;;;3.60;99.60;;;;;;5065045;28;20246;-92
2021/12/06 01:54:18;;;;;;;2.47;2.27;;;3.70;99.40;;;;;;5044416;28;20215;-92
2021/12/06 01:56:44;;;;;;;2.63;2.43;;;3.80;99.30;;;;;;5049910;28;20189;-92
2021/12/06 01:59:11;;;;;;;3.67;2.30;;;3.80;98.90;;;;;;5064425;28;20714;-92
2021/12/06 02:01:37;;;;;;;2.17;2.00;;;3.80;98.80;;;;;;5060849;28;20830;-92
2021/12/06 02:04:04;;;;;;;2.93;2.73;;;3.60;97.80;;;;;;5033391;28;20176;-92
2021/12/06 02:06:44;;;;;;;2.60;2.40;;;3.40;98.00;;;;;;5064242;28;20188;-92
2021/12/06 02:09:12;;;;;;;2.90;2.30;;;3.20;99.90;;;;;;5067884;28;20188;-92
2021/12/06 02:11:39;;;;;;;3.03;2.77;;;3.30;99.90;;;;;;5067739;28;20172;-92
2021/12/06 02:16:43;;;;;;;3.30;2.50;;;3.40;99.90;;;;;;5063142;28;20188;-92
2021/12/06 02:19:10;;;;;;;2.30;2.10;;;3.50;99.90;;;;;;5061944;28;20275;-92
2021/12/06 02:21:41;;;;;;;2.43;2.20;;;3.60;99.70;;;;;;5065689;28;20172;-91
2021/12/06 02:24:09;;;;;;;3.00;2.70;;;3.60;99.60;;;;;;5030489;28;20247;-91
2021/12/06 02:26:41;;;;;;;2.50;2.30;;;3.70;99.40;;;;;;5065537;28;20188;-92
2021/12/06 02:29:09;;;;;;;3.30;2.70;;;3.70;99.00;;;;;;5066979;28;20192;-92
2021/12/06 02:31:36;;;;;;;2.80;2.60;;;3.60;98.90;;;;;;5062095;28;20193;-92
2021/12/06 02:34:02;;;;;;;3.10;2.80;;;3.70;99.00;;;;;;5067357;28;20531;-92
2021/12/06 02:36:30;;;;;;;3.10;2.80;;;3.70;99.20;;;;;;5063665;28;20278;-92
2021/12/06 02:38:56;;;;;;;2.90;2.70;;;3.70;99.00;;;;;;5048311;28;20228;-92
2021/12/06 02:41:23;;;;;;;4.07;2.60;;;3.60;98.10;;;;;;5067210;28;20180;-91
2021/12/06 02:43:50;;;;;;;2.77;2.57;;;3.60;98.40;;;;;;5061515;28;20184;-91
2021/12/06 02:46:16;;;;;;;4.47;3.00;;;3.50;98.90;;;;;;5059427;28;20193;-92
2021/12/06 02:48:42;;;;;;;2.93;2.63;;;3.60;98.80;;;;;;5057227;28;20188;-91
2021/12/06 02:51:09;;;;;;;2.63;2.40;;;3.60;98.70;;;;;;5034741;28;20209;-90
2021/12/06 02:53:36;;;;;;;3.00;2.70;;;3.50;99.90;;;;;;5043003;28;20185;-91
2021/12/06 02:56:16;;;;;;;4.10;3.23;;;3.50;98.90;;;;;;5071685;28;20235;-91
2021/12/06 03:01:14;;;;;;;3.27;2.97;;;3.50;98.50;;;;;;5040921;28;20192;-91
2021/12/06 03:03:39;;;;;;;3.37;3.07;;;3.40;98.20;;;;;;5037200;28;20200;-91
2021/12/06 03:06:06;;;;;;;3.70;3.40;;;3.40;98.00;;;;;;5056881;28;20222;-91
2021/12/06 03:08:39;;;;;;;4.37;3.13;;;3.20;98.70;;;;;;5058302;28;20208;-91
2021/12/06 03:11:20;;;;;;;4.20;2.90;;;3.30;99.80;;;;;;5039587;28;20199;-91
2021/12/06 03:13:45;;;;;;;3.50;2.90;;;3.20;99.80;;;;;;5041379;28;20200;-91
2021/12/06 03:16:12;;;;;;;3.10;2.80;;;3.20;99.90;;;;;;5041275;28;20502;-91
2021/12/06 03:18:41;;;;;;;3.57;3.10;;;3.10;99.90;;;;;;5058985;28;20216;-90
2021/12/06 03:21:06;;;;;;;3.03;2.73;;;3.20;99.90;;;;;;5054119;28;20295;-91
2021/12/06 03:23:32;;;;;;;3.17;2.87;;;3.30;99.90;;;;;;5057495;28;20224;-90
2021/12/06 03:25:58;;;;;;;3.30;3.00;;;3.50;99.90;;;;;;5039119;28;20223;-91
2021/12/06 03:28:24;;;;;;;3.73;2.80;;;3.50;99.70;;;;;;5051378;28;21071;-91
2021/12/06 03:30:49;;;;;;;3.20;2.90;;;3.50;99.20;;;;;;5057140;28;20223;-90
2021/12/06 03:33:15;;;;;;;3.33;3.03;;;3.40;97.70;;;;;;5025094;28;20247;-91
2021/12/06 03:35:41;;;;;;;3.83;3.50;;;3.30;98.90;;;;;;5041533;28;20567;-92
2021/12/06 03:38:07;;;;;;;4.97;4.43;;;3.10;99.90;;;;;;5027070;28;20311;-92
2021/12/06 03:40:33;;;;;;;4.43;3.83;;;2.90;99.90;;;;;;5043250;28;20270;-91
2021/12/06 03:42:59;;;;;;;4.13;3.67;;;2.80;99.90;;;;;;5057736;28;20192;-92
2021/12/06 03:45:25;;;;;;;5.37;4.87;;;3.00;99.90;;;;;;5052308;28;20204;-92
2021/12/06 03:47:51;;;;;;;5.70;4.70;;;3.00;99.90;;;;;;5041585;28;20203;-92
2021/12/06 03:50:17;;;;;;;5.60;4.43;;;3.20;99.90;;;;;;5025936;28;20207;-92
2021/12/06 03:52:43;;;;;;;5.90;4.80;;;3.30;99.90;;;;;;5030263;28;20192;-92
2021/12/06 03:55:10;;;;;;;6.73;5.00;;;3.30;99.90;;;;;;5053263;28;20208;-92
2021/12/06 03:57:36;;;;;;;6.03;4.23;;;3.30;99.90;;;;;;5057065;28;20695;-92
2021/12/06 04:00:05;;;;;;;5.50;4.60;;;3.30;99.90;;;;;;5057245;28;20188;-92
2021/12/06 04:02:32;;;;;;;6.07;4.50;;;3.30;99.90;;;;;;5042436;28;20196;-92
2021/12/06 04:04:58;;;;;;;4.50;4.10;;;3.40;99.90;;;;;;5060459;28;20231;-92
2021/12/06 04:07:24;;;;;;;6.30;4.73;;;3.40;99.90;;;;;;5055663;28;20193;-92
2021/12/06 04:09:50;;;;;;;6.50;4.80;;;3.50;99.90;;;;;;5058575;28;20188;-92
2021/12/06 04:12:16;;;;;;;5.83;5.03;;;3.50;99.90;;;;;;5028276;28;20192;-93
2021/12/06 04:14:43;;;;;;;6.13;5.43;;;3.60;99.90;;;;;;5060462;28;20223;-92
2021/12/06 04:17:09;;;;;;;8.43;6.20;;;3.60;99.90;;;;;;5037780;28;20188;-92
2021/12/06 04:19:35;;;;;;;6.53;5.57;;;3.50;99.90;;;;;;5046143;28;20203;-92
2021/12/06 04:22:03;;;;;;;5.90;5.30;;;3.50;99.90;;;;;;5041647;28;20188;-93
2021/12/06 04:24:29;;;;;;;6.73;5.80;;;3.50;99.90;;;;;;5057696;28;20212;-92
2021/12/06 04:26:55;;;;;;;7.40;5.90;;;3.60;99.90;;;;;;5031856;28;20223;-92
2021/12/06 04:29:21;;;;;;;6.93;5.87;;;3.60;99.90;;;;;;5044989;28;20197;-92
2021/12/06 04:31:55;;;;;;;6.70;6.10;;;3.30;99.90;;;;;;5052673;28;20196;-92
2021/12/06 04:34:22;;;;;;;8.70;7.33;;;3.00;99.90;;;;;;5051497;28;20208;-93
2021/12/06 04:36:48;;;;;;;8.73;7.93;;;2.80;99.90;;;;;;5042889;28;20223;-92
2021/12/06 04:39:17;;;;;;;6.90;5.87;;;2.80;99.90;;;;;;5040439;28;20905;-92
2021/12/06 04:41:43;;;;;;;6.30;5.67;;;3.00;99.90;;;;;;5057532;28;20184;-92
2021/12/06 04:44:09;;;;;;;6.50;5.90;;;3.20;99.90;;;;;;5046817;28;20214;-91
2021/12/06 04:46:36;;;;;;;6.10;5.43;;;3.30;99.90;;;;;;5071291;28;20200;-92
2021/12/06 04:49:03;;;;;;;6.77;5.80;;;3.30;99.90;;;;;;5046439;28;20207;-91
2021/12/06 04:51:30;;;;;;;5.33;4.83;;;3.20;99.90;;;;;;5057119;28;20180;-92
2021/12/06 04:53:56;;;;;;;4.90;4.50;;;3.00;99.90;;;;;;5040144;28;20339;-92
2021/12/06 04:56:36;;;;;;;6.63;5.50;;;3.00;99.90;;;;;;5055543;28;20659;-92
2021/12/06 04:59:35;;;;;;;6.30;5.17;;;3.00;99.90;;;;;;5059839;28;20374;-92
2021/12/06 05:02:08;;;;;;;5.87;5.27;;;2.80;99.90;;;;;;5048459;28;20200;-92
2021/12/06 05:04:37;;;;;;;6.10;5.50;;;2.70;99.90;;;;;;5049466;28;20220;-92
2021/12/06 05:07:19;;;;;;;5.83;5.33;;;2.80;99.90;;;;;;5035182;28;20196;-93
2021/12/06 05:09:46;;;;;;;5.60;5.10;;;2.90;99.90;;;;;;5056498;28;20196;-92
2021/12/06 05:12:15;;;;;;;6.27;5.67;;;2.90;99.90;;;;;;5068204;28;20271;-92
2021/12/06 05:14:41;;;;;;;5.30;4.80;;;2.90;99.90;;;;;;5056409;28;20208;-92
2021/12/06 05:17:07;;;;;;;6.27;5.60;;;2.70;99.90;;;;;;5048923;28;20219;-92
2021/12/06 05:19:32;;;;;;;5.43;4.97;;;2.70;99.90;;;;;;5056098;28;20689;-92
2021/12/06 05:21:59;;;;;;;5.37;4.87;;;2.80;99.90;;;;;;5055695;28;20188;-93
2021/12/06 05:24:25;;;;;;;6.27;5.17;;;2.80;99.90;;;;;;5055008;28;20208;-92
2021/12/06 05:26:50;;;;;;;5.33;4.83;;;2.90;99.90;;;;;;5062299;28;20694;-92
2021/12/06 05:29:21;;;;;;;4.93;4.50;;;2.80;99.90;;;;;;5067367;28;20192;-92
2021/12/06 05:31:54;;;;;;;5.93;4.50;;;2.90;99.90;;;;;;5084290;28;20266;-92
2021/12/06 05:34:28;;;;;;;5.37;4.87;;;2.90;99.90;;;;;;5066673;28;20211;-92
2021/12/06 05:36:53;;;;;;;5.23;4.80;;;3.00;99.90;;;;;;5083150;28;20601;-93
2021/12/06 05:39:19;;;;;;;5.70;4.63;;;3.10;99.90;;;;;;5080174;28;20207;-93
2021/12/06 05:41:45;;;;;;;6.13;5.40;;;2.90;99.90;;;;;;5083004;28;20185;-93
2021/12/06 05:44:11;;;;;;;5.53;5.00;;;2.60;99.90;;;;;;5062984;28;20223;-93
2021/12/06 05:46:36;;;;;;;6.50;5.90;;;2.50;99.90;;;;;;5076458;28;20203;-93
2021/12/06 05:49:03;;;;;;;6.63;5.40;;;2.50;99.90;;;;;;5058643;28;20224;-93
2021/12/06 05:51:28;;;;;;;6.07;5.53;;;2.40;99.90;;;;;;5056545;28;20195;-93
2021/12/06 05:53:54;;;;;;;7.33;6.20;;;2.50;99.90;;;;;;5048228;28;20192;-92
2021/12/06 05:56:20;;;;;;;7.20;6.50;;;2.50;99.90;;;;;;5066447;28;20200;-92
2021/12/06 05:58:46;;;;;;;9.70;6.77;;;2.40;99.90;;;;;;5075145;28;20204;-93
2021/12/06 06:01:12;;;;;;;7.47;5.90;;;2.50;99.90;;;;;;5079474;28;20693;-92
2021/12/06 06:03:37;;;;;;;9.13;6.63;;;2.40;99.90;;;;;;5073179;28;20198;-93
2021/12/06 06:06:03;;;;;;;6.80;6.00;;;2.40;99.90;;;;;;5048884;28;20640;-93
2021/12/06 06:08:29;;;;;;;7.30;5.63;;;2.50;99.90;;;;;;5051264;28;20196;-93
2021/12/06 06:10:55;;;;;;;9.43;6.23;;;2.70;99.90;;;;;;5066013;28;20263;-93
2021/12/06 06:13:20;;;;;;;15.60;9.50;;;2.80;99.90;;;;;;5075792;28;20302;-93
2021/12/06 06:15:49;;;;;;;18.50;10.90;;;2.80;99.90;;;;;;5062419;28;20713;-93
2021/12/06 06:18:15;;;;;;;19.87;10.07;;;2.70;99.90;;;;;;5079908;28;20673;-92
2021/12/06 06:20:59;;;;;;;14.40;9.93;;;2.60;99.90;;;;;;5055499;28;20225;-93
2021/12/06 06:23:26;;;;;;;13.70;9.43;;;2.80;99.90;;;;;;5043241;28;20198;-93
2021/12/06 06:25:52;;;;;;;11.80;9.40;;;2.80;99.90;;;;;;5046172;28;20288;-92
2021/12/06 06:28:17;;;;;;;16.60;10.83;;;2.70;99.90;;;;;;5084247;28;20233;-92
2021/12/06 06:30:43;;;;;;;13.47;9.60;;;2.80;99.90;;;;;;5073191;28;20180;-92
2021/12/06 06:33:09;;;;;;;14.80;9.47;;;2.70;99.90;;;;;;5059641;28;20196;-93
2021/12/06 06:35:35;;;;;;;9.87;7.70;;;2.80;99.90;;;;;;5070149;28;20219;-93
2021/12/06 06:38:01;;;;;;;15.07;9.87;;;3.00;99.90;;;;;;5042567;28;20223;-93
2021/12/06 06:40:27;;;;;;;18.40;10.03;;;3.10;99.90;;;;;;5053239;28;20593;-93
2021/12/06 06:42:53;;;;;;;20.27;13.37;;;3.10;99.90;;;;;;5058067;28;20172;-93
2021/12/06 06:45:20;;;;;;;16.57;10.53;;;3.20;99.90;;;;;;5073800;28;20223;-93
2021/12/06 06:47:47;;;;;;;18.27;14.93;;;3.30;99.90;;;;;;5072767;28;20202;-91
2021/12/06 06:50:13;;;;;;;17.83;10.57;;;3.30;99.90;;;;;;5038094;28;20210;-94
2021/12/06 06:52:39;;;;;;;16.97;9.80;;;3.20;99.90;;;;;;5059376;28;20218;-95
2021/12/06 06:55:06;;;;;;;62.67;12.43;;;3.30;99.90;;;;;;5059628;28;20250;-92
2021/12/06 06:57:33;;;;;;;48.13;11.57;;;3.10;99.90;;;;;;5029717;28;20277;-94
2021/12/06 06:59:58;;;;;;;49.23;11.17;;;3.10;99.90;;;;;;5058615;28;20229;-94
2021/12/06 07:02:24;;;;;;;20.07;10.13;;;3.00;99.90;;;;;;5042355;28;20691;-94
2021/12/06 07:04:50;;;;;;;12.13;8.13;;;2.80;99.90;;;;;;5047901;28;20208;-94
2021/12/06 07:07:16;;;;;;;39.30;10.07;;;2.90;99.90;;;;;;5052803;28;20188;-94
2021/12/06 07:09:43;;;;;;;29.73;9.33;;;2.90;99.90;;;;;;5053770;28;20198;-94
2021/12/06 07:12:17;;;;;;;19.63;9.30;;;2.90;99.90;;;;;;5038348;28;20625;-91
2021/12/06 07:14:45;;;;;;;55.73;11.20;;;3.00;99.90;;;;;;5064437;28;20550;-94
2021/12/06 07:17:11;;;;;;;17.37;10.43;;;3.00;99.90;;;;;;5052120;28;20198;-94
2021/12/06 07:19:37;;;;;;;20.93;10.23;;;3.10;99.90;;;;;;5057490;28;20184;-94
2021/12/06 07:22:04;;;;;;;24.67;10.90;;;3.00;99.90;;;;;;5073735;28;20187;-93
2021/12/06 07:24:30;;;;;;;22.83;10.90;;;3.00;99.90;;;;;;5053820;28;20211;-95
2021/12/06 07:26:56;;;;;;;30.83;11.07;;;2.90;99.90;;;;;;5050918;28;20196;-91
2021/12/06 07:29:23;;;;;;;18.70;10.47;;;2.80;99.90;;;;;;5073614;28;20200;-91
2021/12/06 07:31:49;;;;;;;17.77;10.60;;;2.70;99.90;;;;;;5067927;28;20183;-91
2021/12/06 07:34:15;;;;;;;14.23;9.10;;;2.80;99.90;;;;;;5051534;28;20705;-92
2021/12/06 07:36:41;;;;;;;16.13;10.23;;;3.00;99.90;;;;;;5067567;28;20605;-93
2021/12/06 07:39:10;;;;;;;15.13;9.67;;;3.00;99.90;;;;;;5050673;28;20546;-94
2021/12/06 07:41:36;;;;;;;15.37;9.73;;;2.90;99.90;;;;;;5089809;28;20168;-92
2021/12/06 07:44:04;;;;;;;18.70;10.27;;;2.90;99.90;;;;;;5078371;28;20214;-92
2021/12/06 07:46:30;;;;;;;17.63;9.47;;;2.90;99.90;;;;;;5088608;28;20186;-91
2021/12/06 07:48:56;;;;;;;19.53;10.67;;;2.90;99.90;;;;;;5063779;28;20183;-91
2021/12/06 07:51:24;;;;;;;18.47;10.73;;;2.80;99.90;;;;;;5079301;28;20198;-90
2021/12/06 07:53:51;;;;;;;18.20;11.53;;;2.80;99.90;;;;;;5097158;28;20191;-91
2021/12/06 07:56:16;;;;;;;22.30;11.73;;;2.80;99.90;;;;;;5075986;28;20202;-91
2021/12/06 07:58:42;;;;;;;21.50;11.77;;;2.80;99.90;;;;;;5064567;28;20275;-90
2021/12/06 08:01:09;;;;;;;23.10;12.00;;;2.90;99.90;;;;;;5072522;28;20187;-91
2021/12/06 08:03:37;;;;;;;25.17;12.70;;;2.80;99.90;;;;;;5081550;28;20187;-88
2021/12/06 08:06:04;;;;;;;19.77;12.63;;;2.90;99.90;;;;;;5087516;28;20274;-92
2021/12/06 08:08:31;;;;;;;19.10;10.37;;;2.80;99.90;;;;;;5057766;28;20183;-91
2021/12/06 08:11:00;;;;;;;18.80;11.63;;;2.90;99.90;;;;;;5091794;28;20180;-92
2021/12/06 08:13:31;;;;;;;19.80;12.97;;;3.00;99.90;;;;;;5066837;28;20213;-93
2021/12/06 08:16:02;;;;;;;20.17;12.30;;;3.00;99.90;;;;;;5071895;28;20219;-92
2021/12/06 08:18:28;;;;;;;17.23;10.97;;;3.00;99.90;;;;;;5076896;28;20277;-92
2021/12/06 08:20:54;;;;;;;17.83;11.77;;;3.10;99.90;;;;;;5070264;28;20184;-93
2021/12/06 08:23:20;;;;;;;18.83;12.23;;;3.00;99.90;;;;;;5091957;28;20218;-92
2021/12/06 08:25:52;;;;;;;19.13;12.63;;;2.90;99.90;;;;;;5082310;22;20223;-91
2021/12/06 08:28:19;;;;;;;16.73;11.60;;;3.00;99.90;;;;;;5090583;28;20195;-92
2021/12/06 08:30:46;;;;;;;17.63;12.03;;;3.20;99.90;;;;;;5080047;28;20191;-93
2021/12/06 08:33:13;;;;;;;19.23;12.43;;;3.00;99.90;;;;;;5092454;28;20188;-92
2021/12/06 08:35:45;;;;;;;16.63;12.47;;;3.00;99.90;;;;;;5100201;28;20205;-94
2021/12/06 08:38:11;;;;;;;17.40;12.40;;;3.20;99.90;;;;;;5054425;28;20218;-94
2021/12/06 08:40:38;;;;;;;18.60;12.40;;;3.20;99.90;;;;;;5101880;28;20184;-92
2021/12/06 08:43:05;;;;;;;20.00;13.00;;;3.20;99.90;;;;;;5108360;28;20228;-93
2021/12/06 08:45:32;;;;;;;21.53;13.20;;;3.40;99.90;;;;;;5093784;28;20684;-92
2021/12/06 08:47:59;;;;;;;19.93;12.97;;;3.30;99.90;;;;;;5076271;28;20190;-93
2021/12/06 08:50:27;;;;;;;20.33;13.30;;;3.10;99.90;;;;;;5092763;28;20202;-93
2021/12/06 08:52:59;;;;;;;19.10;12.13;;;3.00;99.90;;;;;;5090591;28;20190;-94
2021/12/06 08:55:25;;;;;;;18.67;13.23;;;3.00;99.90;;;;;;5099672;28;20222;-93
2021/12/06 08:57:57;;;;;;;20.37;13.40;;;3.10;99.90;;;;;;5092557;28;20605;-93
2021/12/06 09:00:30;;;;;;;22.27;13.83;;;3.20;99.90;;;;;;5103312;28;20207;-92
2021/12/06 09:02:56;;;;;;;20.37;12.90;;;3.30;99.90;;;;;;5075438;28;20553;-93
2021/12/06 09:05:26;;;;;;;19.57;12.60;;;3.20;99.90;;;;;;5092378;28;20270;-93
2021/12/06 09:07:52;;;;;;;17.93;13.60;;;3.30;99.90;;;;;;5067307;28;20214;-93
2021/12/06 09:10:19;;;;;;;25.30;15.97;;;2.90;99.90;;;;;;5075022;28;20191;-91
2021/12/06 09:12:45;;;;;;;24.13;15.03;;;2.70;99.90;;;;;;5075908;28;20211;-93
2021/12/06 09:15:18;;;;;;;21.00;13.83;;;2.70;99.90;;;;;;5097506;28;20210;-92
2021/12/06 09:17:45;;;;;;;20.13;13.57;;;2.80;99.90;;;;;;5093719;28;20206;-92
2021/12/06 09:20:13;;;;;;;23.10;15.00;;;2.70;99.90;;;;;;5086089;28;20202;-93
2021/12/06 09:22:40;;;;;;;20.50;13.83;;;2.90;99.90;;;;;;5099256;28;20191;-93
2021/12/06 09:25:08;;;;;;;17.17;12.80;;;2.90;99.90;;;;;;5079119;28;20219;-93
2021/12/06 09:27:34;;;;;;;20.73;13.13;;;3.00;99.90;;;;;;5075403;28;20211;-94
2021/12/06 09:30:00;;;;;;;18.53;13.17;;;3.20;99.90;;;;;;5096816;28;20180;-93
2021/12/06 09:32:26;;;;;;;17.20;13.07;;;3.30;99.90;;;;;;5104692;28;20194;-93
2021/12/06 09:34:57;;;;;;;15.83;12.77;;;3.30;99.90;;;;;;5098823;28;20207;-94
2021/12/06 09:37:23;;;;;;;17.90;13.10;;;3.40;99.90;;;;;;5100470;28;20195;-93
2021/12/06 09:39:49;;;;;;;16.80;12.90;;;3.60;99.90;;;;;;5089332;28;20187;-93
2021/12/06 09:42:18;;;;;;;20.37;13.73;;;3.60;99.90;;;;;;5100187;28;20188;-93
2021/12/06 09:44:44;;;;;;;13.33;11.73;;;3.80;99.90;;;;;;5093816;28;20343;-93
2021/12/06 09:47:12;;;;;;;15.10;12.70;;;3.90;99.90;;;;;;5084014;28;20202;-93
2021/12/06 09:49:38;;;;;;;15.27;11.53;;;3.90;99.90;;;;;;5082356;28;20186;-93
2021/12/06 09:52:06;;;;;;;15.73;11.97;;;4.00;99.90;;;;;;5108479;28;20217;-93
2021/12/06 09:54:36;;;;;;;15.27;11.20;;;3.70;99.90;;;;;;5098860;28;20253;-92
2021/12/06 09:57:05;;;;;;;14.83;11.70;;;3.60;99.90;;;;;;5058728;28;20191;-92
2021/12/06 09:59:32;;;;;;;14.37;12.40;;;3.50;99.90;;;;;;5086987;28;20208;-92
2021/12/06 10:02:02;;;;;;;15.63;12.77;;;3.40;99.90;;;;;;5087801;28;20274;-93
2021/12/06 10:04:32;;;;;;;16.47;12.40;;;3.40;99.90;;;;;;5084909;28;20213;-91
2021/12/06 10:06:59;;;;;;;15.07;11.93;;;3.30;99.90;;;;;;5078147;28;20179;-93
2021/12/06 10:09:26;;;;;;;17.10;12.43;;;3.40;99.90;;;;;;5050363;28;20192;-94
2021/12/06 10:11:56;;;;;;;17.67;13.40;;;3.30;99.90;;;;;;5099135;28;20174;-93
2021/12/06 10:14:23;;;;;;;18.27;14.03;;;3.30;99.90;;;;;;5097788;28;20207;-93
2021/12/06 10:16:49;;;;;;;17.83;12.63;;;3.60;99.90;;;;;;5088868;28;20179;-93
2021/12/06 10:19:16;;;;;;;14.63;13.03;;;3.70;99.90;;;;;;5092734;28;20199;-92
2021/12/06 10:21:43;;;;;;;14.50;11.83;;;3.80;99.90;;;;;;5099069;28;20680;-93
2021/12/06 10:24:18;;;;;;;14.87;11.57;;;3.70;99.90;;;;;;5097403;28;20186;-91
2021/12/06 10:26:45;;;;;;;15.77;12.93;;;3.60;99.90;;;;;;5102071;28;20186;-93
2021/12/06 10:29:20;;;;;;;15.70;12.40;;;3.60;99.90;;;;;;5083957;28;20550;-93
2021/12/06 10:31:49;;;;;;;15.10;12.20;;;3.70;99.90;;;;;;5088563;28;20273;-92
2021/12/06 10:34:24;;;;;;;14.00;11.63;;;3.80;99.90;;;;;;5092729;28;20207;-93
2021/12/06 10:36:52;;;;;;;12.60;11.30;;;3.90;99.90;;;;;;5100284;28;20179;-92
2021/12/06 10:39:18;;;;;;;15.07;11.40;;;4.00;99.90;;;;;;5097448;28;20223;-94
2021/12/06 10:41:49;;;;;;;13.30;11.30;;;4.10;99.90;;;;;;5073834;28;20189;-94
2021/12/06 10:44:15;;;;;;;12.57;11.23;;;4.30;99.90;;;;;;5065546;28;20303;-94
2021/12/06 10:46:52;;;;;;;13.47;11.20;;;4.10;99.90;;;;;;5072413;28;20187;-94
2021/12/06 10:49:22;;;;;;;11.80;10.60;;;4.30;99.90;;;;;;5085584;28;20198;-93
2021/12/06 10:51:48;;;;;;;13.00;11.00;;;4.40;99.90;;;;;;5072749;28;20274;-94
2021/12/06 10:54:30;;;;;;;12.77;11.43;;;4.50;99.90;;;;;;5073324;28;20361;-93
2021/12/06 10:56:59;;;;;;;11.93;9.67;;;4.50;99.90;;;;;;5080205;28;20254;-93
2021/12/06 10:59:31;;;;;;;13.83;11.43;;;4.50;99.90;;;;;;5096667;28;20318;-93
2021/12/06 11:02:04;;;;;;;36.83;29.83;;;4.50;99.90;;;;;;5093706;28;20179;-92
2021/12/06 11:04:30;;;;;;;14.50;11.73;;;4.40;99.90;;;;;;5110821;28;20186;-92
2021/12/06 11:07:05;;;;;;;14.30;12.47;;;4.50;99.90;;;;;;5109340;28;20179;-91
2021/12/06 11:09:33;;;;;;;14.47;10.50;;;4.70;99.90;;;;;;5085288;28;20174;-92
2021/12/06 11:12:01;;;;;;;13.37;10.70;;;4.70;99.90;;;;;;5092213;28;20190;-93
2021/12/06 11:14:32;;;;;;;13.67;11.97;;;4.80;99.90;;;;;;5087058;28;20233;-95
2021/12/06 11:17:05;;;;;;;11.90;9.93;;;5.00;99.90;;;;;;5094447;28;20202;-94
2021/12/06 11:19:31;;;;;;;12.40;10.87;;;5.00;99.00;;;;;;5087571;28;20211;-95
2021/12/06 11:22:00;;;;;;;16.23;12.40;;;4.90;99.90;;;;;;5069776;28;20241;-94
2021/12/06 11:24:37;;;;;;;14.77;12.07;;;4.70;99.90;;;;;;5087297;28;20231;-93
2021/12/06 11:27:22;;;;;;;12.20;10.90;;;4.40;99.90;;;;;;5102581;28;20839;-93
2021/12/06 11:30:10;;;;;;;14.17;11.87;;;4.60;99.90;;;;;;5065981;28;20353;-93
2021/12/06 11:32:40;;;;;;;13.63;11.63;;;4.90;99.90;;;;;;5105451;28;20183;-93
2021/12/06 11:35:24;;;;;;;12.80;10.17;;;5.40;99.90;;;;;;5092225;28;20199;-93
2021/12/06 11:37:52;;;;;;;12.00;9.87;;;5.80;96.00;;;;;;5067639;28;20211;-93
2021/12/06 11:40:30;;;;;;;10.83;8.93;;;5.80;96.00;;;;;;5084415;28;20203;-94
2021/12/06 11:43:06;;;;;;;10.73;8.80;;;6.00;95.40;;;;;;5080055;28;20210;-93
2021/12/06 11:45:40;;;;;;;10.70;9.60;;;6.00;94.30;;;;;;5076123;28;20463;-93
2021/12/06 11:48:08;;;;;;;10.07;9.07;;;6.20;93.70;;;;;;5094981;28;20209;-93
2021/12/06 11:50:40;;;;;;;14.90;13.30;;;6.50;91.60;;;;;;5066399;28;20187;-92
2021/12/06 11:53:07;;;;;;;11.70;9.10;;;6.60;92.40;;;;;;5081192;28;20215;-93
2021/12/06 11:55:35;;;;;;;10.10;9.07;;;6.70;90.30;;;;;;5092141;28;20214;-93
2021/12/06 11:58:03;;;;;;;10.93;9.63;;;6.80;88.90;;;;;;5097204;28;20226;-92
2021/12/06 12:00:29;;;;;;;105.67;74.93;;;6.90;90.60;;;;;;5096676;28;20190;-92
2021/12/06 12:03:00;;;;;;;16.83;14.77;;;6.80;91.10;;;;;;5065051;28;20274;-92
2021/12/06 12:05:35;;;;;;;11.13;10.03;;;7.30;89.10;;;;;;5091186;28;20198;-92
2021/12/06 12:08:10;;;;;;;10.37;8.60;;;7.70;86.70;;;;;;5078787;28;20212;-93
2021/12/06 12:10:44;;;;;;;7.70;6.90;;;7.70;85.50;;;;;;5076294;28;20358;-93
2021/12/06 12:13:35;;;;;;;8.87;7.97;;;7.50;85.30;;;;;;5081364;28;20202;-93
2021/12/06 12:16:05;;;;;;;7.90;6.67;;;7.50;85.10;;;;;;5079989;28;20395;-93
2021/12/06 12:18:35;;;;;;;6.53;5.93;;;7.60;83.30;;;;;;5071874;28;20229;-93
2021/12/06 12:21:02;;;;;;;7.73;6.40;;;7.50;83.90;;;;;;5076974;28;20263;-93
2021/12/06 12:23:33;;;;;;;10.67;7.67;;;7.40;85.30;;;;;;5082124;28;20263;-93
2021/12/06 12:26:06;;;;;;;8.73;7.60;;;7.40;86.40;;;;;;5091534;28;20226;-93
2021/12/06 12:28:39;;;;;;;8.70;7.80;;;7.20;87.00;;;;;;5067986;28;20204;-93
2021/12/06 12:31:09;;;;;;;10.13;7.70;;;7.60;86.20;;;;;;5087843;28;20192;-93
2021/12/06 12:33:36;;;;;;;9.63;7.70;;;7.30;86.70;;;;;;5084375;28;20194;-93
2021/12/06 12:36:06;;;;;;;7.20;6.27;;;6.80;88.70;;;;;;5084512;28;20225;-93
2021/12/06 12:38:34;;;;;;;8.67;6.77;;;6.70;87.60;;;;;;5068102;28;20214;-94
2021/12/06 12:41:09;;;;;;;9.30;7.63;;;6.60;88.20;;;;;;5077788;28;20191;-93
2021/12/06 12:44:03;;;;;;;7.97;7.17;;;6.90;87.90;;;;;;5094723;28;20198;-93
2021/12/06 12:46:40;;;;;;;8.47;7.20;;;6.50;89.50;;;;;;5076442;28;20224;-93
2021/12/06 12:49:15;;;;;;;7.50;6.70;;;6.70;88.00;;;;;;5068986;28;20190;-92
2021/12/06 12:51:54;;;;;;;7.50;6.70;;;6.70;88.10;;;;;;5091775;28;20320;-93
2021/12/06 12:54:31;;;;;;;7.33;6.47;;;6.60;88.00;;;;;;5108735;28;20236;-92
2021/12/06 12:57:05;;;;;;;6.80;6.20;;;6.30;88.90;;;;;;5083296;28;20183;-94
2021/12/06 12:59:56;;;;;;;7.10;6.40;;;6.20;89.60;;;;;;5081972;28;20213;-93
2021/12/06 13:02:32;;;;;;;7.73;6.70;;;6.10;91.40;;;;;;5092316;28;20179;-95
2021/12/06 13:04:58;;;;;;;6.80;6.10;;;6.20;90.00;;;;;;5070353;28;20229;-94
2021/12/06 13:07:27;;;;;;;5.70;5.10;;;6.30;90.00;;;;;;5071369;28;20218;-93
2021/12/06 13:09:54;;;;;;;6.33;5.73;;;6.10;88.50;;;;;;5081100;28;20199;-93